createdAt,value
2022-09-15T00:00:12.336Z,14.14
2022-09-15T00:02:39.297Z,14.15
2022-09-15T00:05:07.105Z,14.08
2022-09-15T00:07:33.861Z,14.12
2022-09-15T00:10:00.685Z,14.10
2022-09-15T00:12:28.073Z,14.12
2022-09-15T00:14:56.479Z,14.12
2022-09-15T00:17:23.506Z,14.11
2022-09-15T00:19:50.531Z,14.12
2022-09-15T00:22:18.327Z,14.17
2022-09-15T00:24:45.191Z,14.17
2022-09-15T00:27:12.102Z,14.20
2022-09-15T00:29:38.938Z,14.18
2022-09-15T00:32:07.170Z,14.20
2022-09-15T00:34:34.463Z,14.22
2022-09-15T00:37:01.251Z,14.30
2022-09-15T00:39:28.124Z,14.30
2022-09-15T00:41:54.934Z,14.25
2022-09-15T00:44:48.209Z,14.23
2022-09-15T00:47:19.610Z,14.20
2022-09-15T00:49:49.571Z,14.21
2022-09-15T00:52:22.537Z,14.12
2022-09-15T00:54:53.626Z,14.10
2022-09-15T00:57:24.771Z,14.00
2022-09-15T00:59:55.023Z,14.05
2022-09-15T01:02:25.953Z,14.01
2022-09-15T01:04:58.334Z,13.94
2022-09-15T01:07:31.041Z,13.96
2022-09-15T01:10:02.020Z,13.91
2022-09-15T01:12:28.839Z,13.90
2022-09-15T01:14:55.678Z,13.92
2022-09-15T01:17:35.783Z,13.95
2022-09-15T01:20:46.591Z,13.96
2022-09-15T01:23:36.512Z,13.99
2022-09-15T01:26:27.684Z,14.05
2022-09-15T01:29:21.879Z,14.06
2022-09-15T01:32:16.190Z,14.06
2022-09-15T01:34:51.659Z,14.10
2022-09-15T01:37:24.274Z,14.17
2022-09-15T01:39:52.891Z,14.21
2022-09-15T01:42:21.099Z,14.32
2022-09-15T01:44:55.513Z,14.35
2022-09-15T01:47:24.321Z,14.53
2022-09-15T01:49:54.540Z,14.58
2022-09-15T01:52:23.553Z,14.67
2022-09-15T01:54:55.659Z,14.71
2022-09-15T01:57:22.867Z,14.74
2022-09-15T01:59:54.163Z,14.73
2022-09-15T02:02:26.800Z,14.69
2022-09-15T02:04:58.022Z,14.69
2022-09-15T02:07:32.051Z,14.66
2022-09-15T02:10:03.006Z,14.69
2022-09-15T02:12:37.503Z,14.65
2022-09-15T02:15:10.799Z,14.58
2022-09-15T02:17:42.914Z,14.54
2022-09-15T02:20:15.699Z,14.50
2022-09-15T02:22:47.677Z,14.47
2022-09-15T02:25:17.593Z,14.45
2022-09-15T02:27:49.832Z,14.41
2022-09-15T02:30:20.317Z,14.42
2022-09-15T02:32:51.548Z,14.35
2022-09-15T02:35:18.514Z,14.44
2022-09-15T02:37:46.846Z,14.43
2022-09-15T02:40:13.729Z,14.46
2022-09-15T02:42:40.904Z,14.47
2022-09-15T02:45:09.117Z,14.46
2022-09-15T02:47:37.318Z,14.44
2022-09-15T02:50:05.078Z,14.46
2022-09-15T02:52:32.017Z,14.54
2022-09-15T02:54:59.379Z,14.58
2022-09-15T02:57:26.167Z,14.57
2022-09-15T03:00:11.631Z,14.59
2022-09-15T03:02:40.038Z,14.54
2022-09-15T03:05:08.818Z,14.55
2022-09-15T03:07:37.771Z,14.52
2022-09-15T03:10:05.300Z,14.47
2022-09-15T03:12:36.817Z,14.48
2022-09-15T03:15:04.213Z,14.47
2022-09-15T03:17:34.484Z,14.45
2022-09-15T03:20:04.246Z,14.52
2022-09-15T03:22:31.462Z,14.51
2022-09-15T03:24:58.290Z,14.58
2022-09-15T03:27:25.755Z,14.64
2022-09-15T03:29:52.780Z,14.69
2022-09-15T03:32:19.927Z,14.68
2022-09-15T03:34:46.736Z,14.63
2022-09-15T03:37:15.204Z,14.64
2022-09-15T03:39:42.091Z,14.61
2022-09-15T03:42:09.376Z,14.57
2022-09-15T03:44:36.313Z,14.59
2022-09-15T03:47:03.590Z,14.56
2022-09-15T03:49:30.425Z,14.51
2022-09-15T03:51:58.474Z,14.48
2022-09-15T03:54:26.917Z,14.44
2022-09-15T03:56:53.810Z,14.37
2022-09-15T03:59:21.141Z,14.25
2022-09-15T04:01:48.948Z,14.26
2022-09-15T04:04:16.190Z,14.23
2022-09-15T04:06:43.566Z,14.14
2022-09-15T04:09:10.409Z,14.14
2022-09-15T04:11:39.542Z,14.13
2022-09-15T04:14:06.511Z,14.10
2022-09-15T04:16:34.053Z,14.11
2022-09-15T04:19:01.738Z,14.02
2022-09-15T04:21:29.096Z,14.09
2022-09-15T04:23:55.926Z,14.04
2022-09-15T04:26:26.178Z,14.08
2022-09-15T04:28:54.643Z,14.14
2022-09-15T04:31:21.646Z,14.19
2022-09-15T04:33:51.580Z,14.19
2022-09-15T04:36:21.193Z,14.21
2022-09-15T04:38:48.797Z,14.25
2022-09-15T04:41:18.245Z,14.25
2022-09-15T04:43:45.090Z,14.30
2022-09-15T04:46:15.064Z,14.37
2022-09-15T04:48:42.529Z,14.35
2022-09-15T04:51:12.698Z,14.36
2022-09-15T04:53:39.560Z,14.37
2022-09-15T04:56:08.581Z,14.35
2022-09-15T04:58:38.186Z,14.38
2022-09-15T05:01:09.930Z,14.37
2022-09-15T05:03:38.629Z,14.39
2022-09-15T05:06:07.885Z,14.39
2022-09-15T05:08:35.322Z,14.21
2022-09-15T05:11:03.960Z,13.92
2022-09-15T05:13:31.068Z,13.52
2022-09-15T05:16:04.296Z,13.16
2022-09-15T05:18:31.668Z,12.99
2022-09-15T05:21:00.836Z,12.89
2022-09-15T05:23:28.165Z,12.82
2022-09-15T05:25:56.067Z,12.78
2022-09-15T05:28:24.582Z,12.76
2022-09-15T05:30:54.760Z,12.76
2022-09-15T05:33:23.306Z,12.79
2022-09-15T05:35:51.439Z,12.74
2022-09-15T05:38:19.832Z,12.76
2022-09-15T05:40:46.900Z,12.74
2022-09-15T05:43:14.433Z,12.71
2022-09-15T05:45:42.829Z,12.64
2022-09-15T05:48:10.058Z,12.65
2022-09-15T05:50:36.953Z,12.74
2022-09-15T05:53:03.896Z,12.71
2022-09-15T05:55:37.758Z,12.82
2022-09-15T05:58:04.776Z,12.87
2022-09-15T06:00:31.620Z,12.89
2022-09-15T06:02:58.542Z,12.97
2022-09-15T06:05:25.541Z,13.01
2022-09-15T06:07:52.713Z,13.12
2022-09-15T06:10:19.539Z,13.21
2022-09-15T06:12:48.717Z,13.31
2022-09-15T06:15:15.672Z,13.38
2022-09-15T06:17:42.455Z,13.40
2022-09-15T06:20:10.128Z,13.39
2022-09-15T06:22:36.900Z,13.42
2022-09-15T06:25:04.267Z,13.50
2022-09-15T06:27:31.152Z,13.49
2022-09-15T06:30:00.086Z,13.59
2022-09-15T06:32:27.139Z,13.67
2022-09-15T06:34:53.904Z,13.76
2022-09-15T06:37:20.733Z,13.91
2022-09-15T06:39:47.543Z,13.97
2022-09-15T06:42:14.403Z,13.99
2022-09-15T06:44:41.731Z,14.05
2022-09-15T06:47:11.208Z,14.09
2022-09-15T06:49:37.841Z,14.15
2022-09-15T06:52:05.182Z,14.22
2022-09-15T06:54:31.922Z,14.19
2022-09-15T06:56:59.084Z,14.19
2022-09-15T06:59:25.955Z,14.16
2022-09-15T07:01:54.506Z,14.13
2022-09-15T07:04:22.881Z,14.10
2022-09-15T07:06:50.681Z,14.07
2022-09-15T07:09:17.635Z,14.05
2022-09-15T07:11:45.019Z,13.97
2022-09-15T07:14:12.420Z,13.99
2022-09-15T07:16:39.898Z,13.93
2022-09-15T07:19:06.761Z,13.99
2022-09-15T07:21:35.764Z,14.08
2022-09-15T07:24:07.017Z,14.19
2022-09-15T07:26:34.749Z,14.17
2022-09-15T07:29:03.859Z,14.27
2022-09-15T07:31:32.867Z,14.40
2022-09-15T07:34:01.066Z,14.55
2022-09-15T07:36:29.018Z,14.64
2022-09-15T07:38:57.774Z,14.62
2022-09-15T07:41:26.229Z,14.70
2022-09-15T07:43:55.356Z,14.83
2022-09-15T07:46:23.897Z,14.94
2022-09-15T07:48:53.152Z,15.08
2022-09-15T07:51:19.964Z,15.29
2022-09-15T07:53:48.104Z,15.44
2022-09-15T07:56:19.711Z,15.59
2022-09-15T07:58:47.577Z,15.72
2022-09-15T08:01:15.298Z,15.58
2022-09-15T08:03:43.926Z,15.73
2022-09-15T08:06:11.695Z,15.78
2022-09-15T08:08:39.682Z,15.81
2022-09-15T08:11:07.408Z,15.85
2022-09-15T08:13:36.845Z,15.93
2022-09-15T08:16:07.603Z,16.02
2022-09-15T08:18:34.773Z,16.14
2022-09-15T08:21:04.874Z,16.31
2022-09-15T08:23:32.023Z,16.41
2022-09-15T08:25:59.272Z,16.51
2022-09-15T08:28:26.874Z,16.56
2022-09-15T08:31:00.408Z,16.42
2022-09-15T08:33:27.722Z,16.40
2022-09-15T08:35:54.869Z,16.42
2022-09-15T08:38:21.676Z,16.68
2022-09-15T08:40:48.877Z,17.07
2022-09-15T08:43:20.868Z,17.41
2022-09-15T08:45:55.802Z,17.57
2022-09-15T08:48:30.007Z,17.78
2022-09-15T08:51:01.586Z,17.65
2022-09-15T08:53:32.705Z,17.86
2022-09-15T08:56:05.440Z,17.94
2022-09-15T08:58:37.718Z,18.44
2022-09-15T09:01:17.589Z,18.43
2022-09-15T09:04:03.234Z,18.25
2022-09-15T09:06:39.453Z,18.14
2022-09-15T09:09:15.204Z,17.70
2022-09-15T09:12:03.519Z,17.46
2022-09-15T09:14:42.979Z,17.38
2022-09-15T09:17:22.954Z,17.32
2022-09-15T09:20:12.629Z,17.81
2022-09-15T09:22:42.980Z,18.88
2022-09-15T09:25:26.508Z,18.87
2022-09-15T09:27:56.495Z,18.92
2022-09-15T09:30:25.166Z,18.48
2022-09-15T09:33:05.020Z,18.00
2022-09-15T09:35:42.943Z,16.42
2022-09-15T09:38:10.832Z,15.45
2022-09-15T09:40:41.190Z,15.10
2022-09-15T09:43:08.845Z,15.27
2022-09-15T09:45:35.662Z,15.55
2022-09-15T09:48:10.121Z,15.85
2022-09-15T09:50:40.968Z,16.50
2022-09-15T09:53:20.479Z,16.93
2022-09-15T09:55:47.848Z,16.92
2022-09-15T09:58:19.823Z,17.37
2022-09-15T10:00:47.846Z,17.64
2022-09-15T10:03:17.245Z,18.01
2022-09-15T10:05:59.723Z,17.95
2022-09-15T10:08:26.829Z,17.57
2022-09-15T10:10:56.823Z,17.25
2022-09-15T10:13:23.740Z,17.56
2022-09-15T10:15:55.688Z,18.18
2022-09-15T10:18:29.317Z,18.50
2022-09-15T10:20:57.932Z,18.66
2022-09-15T10:23:26.913Z,18.43
2022-09-15T10:25:59.404Z,18.11
2022-09-15T10:28:27.968Z,19.00
2022-09-15T10:31:04.838Z,21.18
2022-09-15T10:33:35.076Z,21.36
2022-09-15T10:36:12.808Z,22.18
2022-09-15T10:38:43.988Z,21.89
2022-09-15T10:41:32.255Z,20.13
2022-09-15T10:44:17.853Z,20.43
2022-09-15T10:46:53.656Z,21.06
2022-09-15T10:49:36.321Z,19.16
2022-09-15T10:52:14.838Z,18.26
2022-09-15T10:54:57.996Z,17.80
2022-09-15T10:57:36.644Z,18.19
2022-09-15T11:00:06.913Z,18.40
2022-09-15T11:02:55.347Z,18.92
2022-09-15T11:05:49.378Z,19.67
2022-09-15T11:08:35.706Z,20.41
2022-09-15T11:11:13.551Z,19.58
2022-09-15T11:13:53.247Z,18.52
2022-09-15T11:16:41.273Z,17.82
2022-09-15T11:19:21.636Z,17.31
2022-09-15T11:21:52.872Z,17.17
2022-09-15T11:24:31.641Z,17.08
2022-09-15T11:27:04.075Z,17.00
2022-09-15T11:29:33.275Z,16.79
2022-09-15T11:32:05.703Z,16.70
2022-09-15T11:34:35.795Z,16.73
2022-09-15T11:37:12.175Z,16.84
2022-09-15T11:39:47.426Z,17.13
2022-09-15T11:42:19.894Z,16.98
2022-09-15T11:44:48.085Z,16.65
2022-09-15T11:47:24.687Z,16.33
2022-09-15T11:49:57.140Z,16.58
2022-09-15T11:52:47.116Z,16.69
2022-09-15T11:55:21.883Z,17.11
2022-09-15T11:57:54.752Z,18.09
2022-09-15T12:00:21.683Z,19.70
2022-09-15T12:02:54.358Z,22.68
2022-09-15T12:05:26.825Z,21.79
2022-09-15T12:07:57.905Z,21.04
2022-09-15T12:10:30.458Z,21.50
2022-09-15T12:13:00.206Z,21.39
2022-09-15T12:15:27.526Z,21.60
2022-09-15T12:18:21.364Z,20.55
2022-09-15T12:21:03.102Z,21.45
2022-09-15T12:23:34.781Z,22.05
2022-09-15T12:26:14.657Z,21.32
2022-09-15T12:28:52.170Z,20.64
2022-09-15T12:31:31.295Z,21.08
2022-09-15T12:34:00.027Z,20.30
2022-09-15T12:36:37.043Z,19.15
2022-09-15T12:39:20.912Z,20.09
2022-09-15T12:41:50.601Z,19.60
2022-09-15T12:44:24.819Z,19.69
2022-09-15T12:46:53.086Z,19.95
2022-09-15T12:49:28.087Z,20.24
2022-09-15T12:51:55.205Z,19.99
2022-09-15T12:54:26.443Z,19.95
2022-09-15T12:56:56.426Z,19.37
2022-09-15T12:59:26.140Z,18.84
2022-09-15T13:01:53.867Z,18.63
2022-09-15T13:04:51.374Z,18.66
2022-09-15T13:07:32.187Z,18.49
2022-09-15T13:10:00.811Z,18.26
2022-09-15T13:12:35.410Z,18.08
2022-09-15T13:15:03.991Z,18.64
2022-09-15T13:17:33.322Z,18.59
2022-09-15T13:20:07.222Z,18.34
2022-09-15T13:22:39.912Z,17.78
2022-09-15T13:25:16.467Z,17.44
2022-09-15T13:27:47.226Z,17.56
2022-09-15T13:30:31.211Z,18.06
2022-09-15T13:33:06.085Z,18.74
2022-09-15T13:36:00.550Z,18.40
2022-09-15T13:38:54.641Z,18.23
2022-09-15T13:41:46.974Z,18.68
2022-09-15T13:44:37.810Z,19.10
2022-09-15T13:47:21.703Z,18.91
2022-09-15T13:49:53.473Z,18.42
2022-09-15T13:52:44.327Z,18.21
2022-09-15T13:55:21.628Z,18.67
2022-09-15T14:00:49.219Z,18.19
2022-09-15T14:03:25.849Z,17.68
2022-09-15T14:05:53.927Z,17.30
2022-09-15T14:08:24.429Z,17.33
2022-09-15T14:10:55.193Z,17.66
2022-09-15T14:13:26.667Z,17.72
2022-09-15T14:16:00.832Z,17.40
2022-09-15T14:18:28.489Z,17.39
2022-09-15T14:21:00.578Z,17.11
2022-09-15T14:23:27.721Z,17.04
2022-09-15T14:25:54.810Z,17.04
2022-09-15T14:28:30.810Z,16.98
2022-09-15T14:31:00.747Z,16.94
2022-09-15T14:33:38.085Z,17.22
2022-09-15T14:36:13.250Z,17.17
2022-09-15T14:38:40.193Z,17.26
2022-09-15T14:41:07.481Z,17.32
2022-09-15T14:43:36.199Z,17.19
2022-09-15T14:46:15.206Z,16.87
2022-09-15T14:48:42.285Z,16.74
2022-09-15T14:51:18.984Z,16.54
2022-09-15T14:53:49.426Z,16.61
2022-09-15T14:56:21.194Z,16.72
2022-09-15T14:58:52.781Z,16.60
2022-09-15T15:01:23.498Z,16.76
2022-09-15T15:03:58.441Z,16.86
2022-09-15T15:06:37.443Z,16.68
2022-09-15T15:09:12.569Z,16.61
2022-09-15T15:11:42.003Z,16.49
2022-09-15T15:14:09.777Z,16.37
2022-09-15T15:16:50.732Z,16.25
2022-09-15T15:19:31.846Z,16.39
2022-09-15T15:22:07.689Z,16.39
2022-09-15T15:24:34.625Z,16.25
2022-09-15T15:27:46.260Z,16.20
2022-09-15T15:30:32.958Z,16.17
2022-09-15T15:33:04.874Z,16.29
2022-09-15T15:35:35.728Z,16.28
2022-09-15T15:38:06.390Z,16.02
2022-09-15T15:40:35.308Z,15.89
2022-09-15T15:43:05.775Z,15.90
2022-09-15T15:45:34.104Z,15.97
2022-09-15T15:48:04.037Z,16.38
2022-09-15T15:50:32.700Z,16.37
2022-09-15T15:53:00.943Z,16.05
2022-09-15T15:55:36.968Z,15.84
2022-09-15T15:58:04.689Z,15.78
2022-09-15T16:00:38.868Z,15.63
2022-09-15T16:03:08.872Z,15.52
2022-09-15T16:05:36.868Z,15.46
2022-09-15T16:08:07.180Z,14.83
2022-09-15T16:10:40.492Z,14.00
2022-09-15T16:13:08.369Z,13.58
2022-09-15T16:15:35.122Z,13.22
2022-09-15T16:18:02.005Z,13.08
2022-09-15T16:20:30.653Z,13.00
2022-09-15T16:22:57.659Z,12.89
2022-09-15T16:25:34.185Z,12.86
2022-09-15T16:28:01.678Z,12.89
2022-09-15T16:30:28.585Z,13.04
2022-09-15T16:32:55.532Z,13.04
2022-09-15T16:35:31.386Z,12.90
2022-09-15T16:37:59.558Z,12.71
2022-09-15T16:40:26.554Z,12.64
2022-09-15T16:42:53.651Z,12.68
2022-09-15T16:45:25.933Z,12.68
2022-09-15T16:47:52.676Z,12.65
2022-09-15T16:50:19.534Z,12.56
2022-09-15T16:52:46.350Z,12.47
2022-09-15T16:55:23.327Z,12.38
2022-09-15T16:57:50.618Z,12.38
2022-09-15T17:00:17.968Z,12.44
2022-09-15T17:02:44.734Z,12.55
2022-09-15T17:05:18.684Z,12.70
2022-09-15T17:07:45.551Z,12.80
2022-09-15T17:10:12.398Z,12.81
2022-09-15T17:12:40.797Z,12.76
2022-09-15T17:15:26.815Z,12.67
2022-09-15T17:17:53.741Z,12.50
2022-09-15T17:20:21.696Z,12.32
2022-09-15T17:22:49.202Z,12.23
2022-09-15T17:25:27.774Z,12.16
2022-09-15T17:27:57.097Z,12.14
2022-09-15T17:30:26.405Z,12.15
2022-09-15T17:33:01.532Z,12.09
2022-09-15T17:35:28.436Z,11.94
2022-09-15T17:37:55.184Z,11.90
2022-09-15T17:40:22.113Z,11.83
2022-09-15T17:42:49.230Z,11.76
2022-09-15T17:45:21.365Z,11.76
2022-09-15T17:47:48.581Z,11.74
2022-09-15T17:50:16.128Z,11.82
2022-09-15T17:52:42.977Z,11.83
2022-09-15T17:55:20.959Z,11.80
2022-09-15T17:57:48.843Z,11.84
2022-09-15T18:00:19.048Z,11.85
2022-09-15T18:02:49.812Z,11.84
2022-09-15T18:05:20.844Z,11.71
2022-09-15T18:07:47.612Z,11.77
2022-09-15T18:10:16.589Z,11.73
2022-09-15T18:12:46.844Z,11.71
2022-09-15T18:15:21.097Z,11.62
2022-09-15T18:17:48.685Z,11.67
2022-09-15T18:20:17.860Z,11.69
2022-09-15T18:22:45.064Z,11.62
2022-09-15T18:25:20.244Z,11.58
2022-09-15T18:27:49.373Z,11.60
2022-09-15T18:30:18.491Z,11.50
2022-09-15T18:32:45.947Z,11.62
2022-09-15T18:35:18.349Z,11.62
2022-09-15T18:37:46.659Z,11.66
2022-09-15T18:40:15.723Z,11.63
2022-09-15T18:42:42.994Z,11.61
2022-09-15T18:45:12.223Z,11.50
2022-09-15T18:47:42.526Z,11.49
2022-09-15T18:50:12.184Z,11.34
2022-09-15T18:52:41.087Z,11.26
2022-09-15T18:55:15.253Z,11.16
2022-09-15T18:57:43.212Z,11.09
2022-09-15T19:00:14.080Z,11.05
2022-09-15T19:02:42.737Z,11.12
2022-09-15T19:05:15.570Z,11.27
2022-09-15T19:07:43.146Z,11.47
2022-09-15T19:10:12.215Z,11.84
2022-09-15T19:12:39.920Z,11.89
2022-09-15T19:15:10.890Z,11.95
2022-09-15T19:17:39.518Z,11.91
2022-09-15T19:20:10.086Z,11.84
2022-09-15T19:22:37.459Z,11.98
2022-09-15T19:25:05.523Z,12.03
2022-09-15T19:27:32.516Z,12.03
2022-09-15T19:30:00.155Z,12.10
2022-09-15T19:32:27.539Z,12.04
2022-09-15T19:34:55.015Z,12.06
2022-09-15T19:37:23.859Z,11.99
2022-09-15T19:39:51.337Z,11.94
2022-09-15T19:42:18.381Z,11.86
2022-09-15T19:44:45.886Z,11.78
2022-09-15T19:47:13.008Z,11.77
2022-09-15T19:49:40.137Z,11.79
2022-09-15T19:52:07.499Z,11.79
2022-09-15T19:54:35.872Z,11.76
2022-09-15T19:57:03.095Z,11.71
2022-09-15T19:59:31.795Z,11.61
2022-09-15T20:02:00.033Z,11.53
2022-09-15T20:07:12.791Z,11.51
2022-09-15T20:09:40.841Z,11.49
2022-09-15T20:12:08.028Z,11.58
2022-09-15T20:14:34.703Z,11.68
2022-09-15T20:17:02.029Z,11.84
2022-09-15T20:19:29.116Z,11.87
2022-09-15T20:21:56.121Z,11.88
2022-09-15T20:24:24.016Z,11.83
2022-09-15T20:26:52.628Z,11.88
2022-09-15T20:29:20.382Z,11.87
2022-09-15T20:31:47.796Z,11.78
2022-09-15T20:34:14.913Z,11.83
2022-09-15T20:36:42.029Z,11.84
2022-09-15T20:39:12.913Z,11.83
2022-09-15T20:41:41.274Z,11.78
2022-09-15T20:44:09.568Z,11.86
2022-09-15T20:46:37.072Z,12.04
2022-09-15T20:49:04.762Z,12.14
2022-09-15T20:51:33.720Z,12.12
2022-09-15T20:54:03.524Z,12.04
2022-09-15T20:56:32.212Z,11.88
2022-09-15T20:59:00.602Z,11.75
2022-09-15T21:01:32.127Z,11.66
2022-09-15T21:03:59.343Z,11.57
2022-09-15T21:06:27.852Z,11.54
2022-09-15T21:08:56.706Z,11.48
2022-09-15T21:11:25.639Z,11.38
2022-09-15T21:13:52.596Z,11.37
2022-09-15T21:16:21.055Z,11.34
2022-09-15T21:18:50.938Z,11.43
2022-09-15T21:21:20.401Z,11.49
2022-09-15T21:23:47.835Z,11.58
2022-09-15T21:26:16.356Z,11.69
2022-09-15T21:28:46.350Z,11.78
2022-09-15T21:31:15.252Z,11.77
2022-09-15T21:33:42.222Z,11.75
2022-09-15T21:36:11.964Z,11.75
2022-09-15T21:38:40.621Z,11.74
2022-09-15T21:41:09.317Z,11.73
2022-09-15T21:43:37.706Z,11.63
2022-09-15T21:46:06.373Z,11.74
2022-09-15T21:48:34.832Z,11.71
2022-09-15T21:51:02.951Z,11.74
2022-09-15T21:53:32.243Z,11.74
2022-09-15T21:56:01.298Z,11.73
2022-09-15T21:58:38.997Z,11.76
2022-09-15T22:01:11.402Z,11.76
2022-09-15T22:03:41.406Z,11.77
2022-09-15T22:06:09.275Z,11.73
2022-09-15T22:08:38.249Z,11.65
2022-09-15T22:11:06.385Z,11.61
2022-09-15T22:13:35.539Z,11.65
2022-09-15T22:16:03.171Z,11.70
2022-09-15T22:18:30.120Z,11.75
2022-09-15T22:21:05.174Z,11.80
2022-09-15T22:23:31.979Z,11.79
2022-09-15T22:26:02.246Z,11.80
2022-09-15T22:28:29.019Z,11.80
2022-09-15T22:31:00.327Z,11.80
2022-09-15T22:33:27.564Z,11.83
2022-09-15T22:35:54.770Z,11.81
2022-09-15T22:38:21.953Z,11.81
2022-09-15T22:40:48.767Z,11.70
2022-09-15T22:43:16.952Z,11.75
2022-09-15T22:45:43.991Z,11.69
2022-09-15T22:48:10.910Z,11.67
2022-09-15T22:50:38.296Z,11.61
2022-09-15T22:53:05.507Z,11.54
2022-09-15T22:55:32.570Z,11.44
2022-09-15T22:57:59.368Z,11.33
2022-09-15T23:00:27.736Z,11.32
2022-09-15T23:02:54.702Z,11.32
2022-09-15T23:05:21.544Z,11.27
2022-09-15T23:07:48.339Z,11.26
2022-09-15T23:10:15.339Z,11.19
2022-09-15T23:12:42.434Z,11.15
2022-09-15T23:15:10.264Z,11.09
2022-09-15T23:17:39.127Z,11.00
2022-09-15T23:20:06.277Z,10.95
2022-09-15T23:22:33.004Z,10.92
2022-09-15T23:24:59.779Z,10.84
2022-09-15T23:27:26.603Z,10.87
2022-09-15T23:29:53.372Z,10.90
2022-09-15T23:32:20.174Z,10.98
2022-09-15T23:34:48.960Z,11.16
2022-09-15T23:37:15.935Z,11.28
2022-09-15T23:39:42.763Z,11.37
2022-09-15T23:42:09.527Z,11.49
2022-09-15T23:44:36.307Z,11.58
2022-09-15T23:47:03.095Z,11.63
2022-09-15T23:49:29.944Z,11.62
2022-09-15T23:51:58.079Z,11.53
2022-09-15T23:54:24.973Z,11.42
2022-09-15T23:56:51.755Z,11.35
2022-09-15T23:59:18.748Z,11.24
